createdAt,value
2023-03-08T00:01:02.736Z,99020.38
2023-03-08T00:03:29.354Z,99017.25
2023-03-08T00:05:55.584Z,99013.53
2023-03-08T00:08:22.017Z,99018.03
2023-03-08T00:10:48.150Z,99010.69
2023-03-08T00:13:14.539Z,99015.81
2023-03-08T00:15:40.706Z,99018.03
2023-03-08T00:18:07.180Z,99025.97
2023-03-08T00:20:33.342Z,99025.84
2023-03-08T00:22:59.744Z,99022.28
2023-03-08T00:25:25.829Z,99026.66
2023-03-08T00:27:52.176Z,99026.66
2023-03-08T00:30:18.393Z,99019.31
2023-03-08T00:32:44.924Z,99025.66
2023-03-08T00:35:12.223Z,99022.88
2023-03-08T00:37:38.634Z,99024.41
2023-03-08T00:40:05.373Z,99027.34
2023-03-08T00:42:34.571Z,99024.81
2023-03-08T00:45:00.655Z,99022.28
2023-03-08T00:47:27.890Z,99031.31
2023-03-08T00:49:53.989Z,99036.38
2023-03-08T00:52:20.734Z,99035.53
2023-03-08T00:54:47.110Z,99042.03
2023-03-08T00:57:13.983Z,99044.28
2023-03-08T00:59:40.070Z,99051.91
2023-03-08T01:02:06.619Z,99047.81
2023-03-08T01:04:33.297Z,99052.84
2023-03-08T01:07:00.456Z,99053.72
2023-03-08T01:09:26.547Z,99050.66
2023-03-08T01:11:53.293Z,99053.34
2023-03-08T01:14:19.480Z,99050.34
2023-03-08T01:16:45.873Z,99056.56
2023-03-08T01:19:12.159Z,99055.00
2023-03-08T01:21:38.548Z,99053.41
2023-03-08T01:24:05.145Z,99053.50
2023-03-08T01:26:31.575Z,99065.50
2023-03-08T01:28:57.800Z,99054.94
2023-03-08T01:31:29.277Z,99060.28
2023-03-08T01:33:57.521Z,99064.03
2023-03-08T01:36:26.154Z,99072.38
2023-03-08T01:38:53.002Z,99066.03
2023-03-08T01:41:24.069Z,99063.66
2023-03-08T01:43:51.135Z,99071.97
2023-03-08T01:46:35.195Z,99062.69
2023-03-08T01:49:34.267Z,99065.88
2023-03-08T01:52:08.399Z,99064.03
2023-03-08T01:54:47.232Z,99073.38
2023-03-08T01:57:41.971Z,99073.53
2023-03-08T02:00:18.447Z,99079.88
2023-03-08T02:02:59.064Z,99074.38
2023-03-08T02:05:27.264Z,99078.19
2023-03-08T02:07:58.824Z,99078.44
2023-03-08T02:10:29.822Z,99079.88
2023-03-08T02:12:56.390Z,99075.78
2023-03-08T02:15:22.943Z,99071.84
2023-03-08T02:17:53.744Z,99072.41
2023-03-08T02:20:29.553Z,99084.38
2023-03-08T02:23:13.549Z,99076.50
2023-03-08T02:25:48.761Z,99078.31
2023-03-08T02:28:15.372Z,99076.78
2023-03-08T02:30:41.588Z,99082.13
2023-03-08T02:33:07.956Z,99090.56
2023-03-08T02:35:35.242Z,99095.63
2023-03-08T02:38:01.642Z,99103.09
2023-03-08T02:40:27.751Z,99100.72
2023-03-08T02:42:55.657Z,99108.31
2023-03-08T02:45:22.580Z,99115.34
2023-03-08T02:47:49.105Z,99114.63
2023-03-08T02:50:16.353Z,99111.50
2023-03-08T02:52:44.175Z,99107.72
2023-03-08T02:55:10.347Z,99103.66
2023-03-08T02:57:36.796Z,99110.50
2023-03-08T03:00:05.306Z,99116.69
2023-03-08T03:02:33.799Z,99113.78
2023-03-08T03:05:03.475Z,99128.25
2023-03-08T03:07:29.940Z,99123.88
2023-03-08T03:09:56.144Z,99128.81
2023-03-08T03:12:22.579Z,99139.66
2023-03-08T03:14:48.666Z,99141.22
2023-03-08T03:17:15.764Z,99144.59
2023-03-08T03:19:41.891Z,99145.75
2023-03-08T03:22:08.277Z,99151.50
2023-03-08T03:24:37.144Z,99148.69
2023-03-08T03:27:04.928Z,99151.78
2023-03-08T03:29:33.799Z,99160.63
2023-03-08T03:32:09.694Z,99154.69
2023-03-08T03:34:36.250Z,99154.81
2023-03-08T03:37:03.095Z,99166.06
2023-03-08T03:39:34.132Z,99167.72
2023-03-08T03:42:01.277Z,99162.78
2023-03-08T03:44:30.096Z,99174.50
2023-03-08T03:46:57.215Z,99177.72
2023-03-08T03:49:25.777Z,99176.03
2023-03-08T03:51:52.246Z,99177.44
2023-03-08T03:54:34.710Z,99180.50
2023-03-08T03:57:02.115Z,99185.84
2023-03-08T03:59:33.625Z,99191.47
2023-03-08T04:02:00.720Z,99194.53
2023-03-08T04:04:38.805Z,99198.91
2023-03-08T04:07:05.821Z,99192.19
2023-03-08T04:09:38.206Z,99199.53
2023-03-08T04:12:16.702Z,99200.72
2023-03-08T04:14:44.040Z,99202.44
2023-03-08T04:17:12.779Z,99195.97
2023-03-08T04:19:49.327Z,99196.22
2023-03-08T04:22:16.888Z,99200.56
2023-03-08T04:24:48.735Z,99193.84
2023-03-08T04:27:20.892Z,99206.78
2023-03-08T04:29:47.316Z,99210.25
2023-03-08T04:32:14.478Z,99203.94
2023-03-08T04:34:46.087Z,99209.56
2023-03-08T04:37:16.113Z,99211.09
2023-03-08T04:39:46.979Z,99215.88
2023-03-08T04:42:13.726Z,99212.22
2023-03-08T04:44:40.116Z,99210.13
2023-03-08T04:47:07.925Z,99219.78
2023-03-08T04:49:43.298Z,99216.97
2023-03-08T04:52:09.767Z,99220.63
2023-03-08T04:54:38.013Z,99226.22
2023-03-08T04:57:20.792Z,99232.03
2023-03-08T04:59:48.013Z,99230.31
2023-03-08T05:02:14.513Z,99226.50
2023-03-08T05:04:41.485Z,99237.22
2023-03-08T05:07:07.868Z,99233.25
2023-03-08T05:09:35.689Z,99234.53
2023-03-08T05:12:02.360Z,99242.56
2023-03-08T05:14:42.455Z,99239.91
2023-03-08T05:17:09.301Z,99244.13
2023-03-08T05:19:35.415Z,99247.91
2023-03-08T05:22:01.942Z,99253.25
2023-03-08T05:24:29.298Z,99253.81
2023-03-08T05:26:58.840Z,99253.25
2023-03-08T05:29:25.287Z,99258.88
2023-03-08T05:31:51.683Z,99261.50
2023-03-08T05:34:18.173Z,99264.91
2023-03-08T05:36:47.097Z,99264.44
2023-03-08T05:39:13.506Z,99263.41
2023-03-08T05:41:56.568Z,99266.72
2023-03-08T05:44:28.646Z,99270.63
2023-03-08T05:46:57.650Z,99278.25
2023-03-08T05:49:25.258Z,99272.81
2023-03-08T05:51:52.150Z,99279.56
2023-03-08T05:54:20.500Z,99280.41
2023-03-08T05:56:49.197Z,99286.66
2023-03-08T05:59:25.977Z,99280.06
2023-03-08T06:01:54.296Z,99276.56
2023-03-08T06:04:29.752Z,99287.16
2023-03-08T06:06:56.312Z,99288.66
2023-03-08T06:09:27.463Z,99286.59
2023-03-08T06:11:55.024Z,99298.72
2023-03-08T06:14:22.784Z,99298.34
2023-03-08T06:16:50.585Z,99299.03
2023-03-08T06:19:19.601Z,99306.25
2023-03-08T06:21:47.467Z,99307.09
2023-03-08T06:24:13.922Z,99304.13
2023-03-08T06:26:40.539Z,99307.72
2023-03-08T06:29:06.821Z,99311.13
2023-03-08T06:31:33.252Z,99323.53
2023-03-08T06:34:01.467Z,99325.66
2023-03-08T06:36:28.055Z,99325.72
2023-03-08T06:38:55.268Z,99337.31
2023-03-08T06:41:21.860Z,99337.50
2023-03-08T06:43:52.617Z,99342.59
2023-03-08T06:46:19.667Z,99339.22
2023-03-08T06:48:47.124Z,99349.94
2023-03-08T06:51:15.856Z,99354.72
2023-03-08T06:53:44.317Z,99354.44
2023-03-08T06:56:14.448Z,99361.22
2023-03-08T06:58:41.281Z,99360.66
2023-03-08T07:01:08.999Z,99362.63
2023-03-08T07:03:36.454Z,99360.78
2023-03-08T07:06:05.385Z,99360.63
2023-03-08T07:08:31.607Z,99361.34
2023-03-08T07:10:58.630Z,99362.91
2023-03-08T07:13:25.332Z,99362.75
2023-03-08T07:15:52.032Z,99371.63
2023-03-08T07:18:19.058Z,99370.53
2023-03-08T07:20:45.606Z,99370.38
2023-03-08T07:23:11.813Z,99376.16
2023-03-08T07:25:41.651Z,99370.81
2023-03-08T07:28:07.993Z,99375.03
2023-03-08T07:30:34.489Z,99369.94
2023-03-08T07:33:00.901Z,99370.22
2023-03-08T07:35:27.540Z,99372.63
2023-03-08T07:37:53.802Z,99382.50
2023-03-08T07:40:20.840Z,99386.72
2023-03-08T07:42:47.549Z,99379.41
2023-03-08T07:45:28.425Z,99385.31
2023-03-08T07:47:54.653Z,99385.91
2023-03-08T07:50:21.537Z,99385.03
2023-03-08T07:52:48.640Z,99389.69
2023-03-08T07:55:15.749Z,99380.19
2023-03-08T07:57:42.016Z,99378.22
2023-03-08T08:00:09.209Z,99386.09
2023-03-08T08:02:38.833Z,99390.16
2023-03-08T08:05:06.326Z,99375.28
2023-03-08T08:07:32.582Z,99371.97
2023-03-08T08:09:59.291Z,99383.66
2023-03-08T08:12:25.819Z,99382.81
2023-03-08T08:14:53.005Z,99381.50
2023-03-08T08:17:20.004Z,99379.66
2023-03-08T08:19:47.494Z,99377.72
2023-03-08T08:22:14.291Z,99380.56
2023-03-08T08:24:40.888Z,99380.03
2023-03-08T08:27:07.185Z,99376.50
2023-03-08T08:29:33.866Z,99377.25
2023-03-08T08:32:01.702Z,99384.53
2023-03-08T08:34:28.374Z,99381.53
2023-03-08T08:36:54.766Z,99387.38
2023-03-08T08:39:21.603Z,99383.47
2023-03-08T08:41:50.971Z,99390.09
2023-03-08T08:44:17.662Z,99391.69
2023-03-08T08:46:44.069Z,99399.00
2023-03-08T08:49:10.698Z,99391.78
2023-03-08T08:51:37.171Z,99397.22
2023-03-08T08:54:04.165Z,99395.53
2023-03-08T08:56:31.776Z,99394.44
2023-03-08T08:59:01.814Z,99397.91
2023-03-08T09:01:32.072Z,99414.00
2023-03-08T09:03:59.585Z,99408.19
2023-03-08T09:06:27.511Z,99404.09
2023-03-08T09:08:57.201Z,99404.50
2023-03-08T09:11:26.148Z,99398.59
2023-03-08T09:13:53.478Z,99402.53
2023-03-08T09:16:32.839Z,99403.63
2023-03-08T09:19:01.875Z,99401.81
2023-03-08T09:21:29.930Z,99400.69
2023-03-08T09:24:04.142Z,99407.50
2023-03-08T09:26:31.915Z,99402.97
2023-03-08T09:29:04.084Z,99399.88
2023-03-08T09:31:31.775Z,99401.19
2023-03-08T09:33:59.343Z,99395.66
2023-03-08T09:36:28.059Z,99388.25
2023-03-08T09:38:55.406Z,99393.00
2023-03-08T09:41:27.724Z,99384.19
2023-03-08T09:44:12.307Z,99393.16
2023-03-08T09:46:57.705Z,99393.41
2023-03-08T09:49:28.957Z,99385.81
2023-03-08T09:52:06.210Z,99381.78
2023-03-08T09:54:37.583Z,99378.31
2023-03-08T09:57:11.097Z,99373.78
2023-03-08T09:59:44.890Z,99375.88
2023-03-08T10:02:33.702Z,99368.03
2023-03-08T10:05:12.678Z,99371.59
2023-03-08T10:08:20.313Z,99368.81
2023-03-08T10:11:06.952Z,99349.06
2023-03-08T10:13:53.524Z,99345.47
2023-03-08T10:16:25.878Z,99342.09
2023-03-08T10:19:01.466Z,99335.00
2023-03-08T10:21:30.942Z,99334.72
2023-03-08T10:24:01.706Z,99337.91
2023-03-08T10:26:28.212Z,99333.69
2023-03-08T10:28:54.425Z,99334.53
2023-03-08T10:31:25.884Z,99338.06
2023-03-08T10:34:01.667Z,99342.13
2023-03-08T10:36:28.487Z,99335.66
2023-03-08T10:39:06.876Z,99343.13
2023-03-08T10:41:45.669Z,99340.56
2023-03-08T10:44:36.386Z,99339.88
2023-03-08T10:47:16.507Z,99342.34
2023-03-08T10:49:44.508Z,99329.69
2023-03-08T10:52:26.913Z,99332.50
2023-03-08T10:55:05.601Z,99330.78
2023-03-08T10:57:32.839Z,99339.97
2023-03-08T11:00:21.903Z,99332.97
2023-03-08T11:02:48.874Z,99333.09
2023-03-08T11:05:21.399Z,99331.66
2023-03-08T11:07:53.658Z,99330.91
2023-03-08T11:10:23.772Z,99325.19
2023-03-08T11:13:09.474Z,99323.81
2023-03-08T11:15:39.793Z,99320.31
2023-03-08T11:18:26.883Z,99310.94
2023-03-08T11:21:00.323Z,99317.59
2023-03-08T11:23:38.977Z,99305.13
2023-03-08T11:26:29.746Z,99306.66
2023-03-08T11:29:45.661Z,99300.91
2023-03-08T11:32:39.400Z,99307.13
2023-03-08T11:35:24.614Z,99302.41
2023-03-08T11:38:04.449Z,99298.53
2023-03-08T11:40:59.036Z,99294.66
2023-03-08T11:43:34.062Z,99306.34
2023-03-08T11:46:19.008Z,99300.59
2023-03-08T11:49:15.755Z,99298.81
2023-03-08T11:52:04.775Z,99294.38
2023-03-08T11:54:37.273Z,99292.47
2023-03-08T11:57:11.803Z,99293.09
2023-03-08T11:59:46.956Z,99288.56
2023-03-08T12:02:19.916Z,99285.31
2023-03-08T12:05:05.777Z,99277.34
2023-03-08T12:08:11.215Z,99269.28
2023-03-08T12:10:49.253Z,99261.53
2023-03-08T12:13:24.430Z,99262.59
2023-03-08T12:15:59.971Z,99256.19
2023-03-08T12:18:51.103Z,99250.47
2023-03-08T12:21:53.421Z,99254.31
2023-03-08T12:24:52.745Z,99242.00
2023-03-08T12:27:30.520Z,99245.38
2023-03-08T12:30:13.394Z,99241.19
2023-03-08T12:32:42.287Z,99245.72
2023-03-08T12:35:34.504Z,99229.56
2023-03-08T12:38:05.259Z,99230.75
2023-03-08T12:40:38.700Z,99229.22
2023-03-08T12:43:18.769Z,99218.97
2023-03-08T12:46:10.936Z,99218.28
2023-03-08T12:48:44.352Z,99215.78
2023-03-08T12:51:10.983Z,99209.03
2023-03-08T12:53:49.859Z,99218.13
2023-03-08T12:56:23.355Z,99211.06
2023-03-08T12:58:54.127Z,99206.00
2023-03-08T13:01:41.509Z,99195.34
2023-03-08T13:04:39.972Z,99197.19
2023-03-08T13:07:31.283Z,99199.91
2023-03-08T13:10:21.095Z,99200.75
2023-03-08T13:13:36.772Z,99201.78
2023-03-08T13:16:37.621Z,99192.19
2023-03-08T13:19:13.954Z,99188.00
2023-03-08T13:21:48.246Z,99186.47
2023-03-08T13:24:26.921Z,99186.31
2023-03-08T13:27:12.084Z,99187.97
2023-03-08T13:29:42.451Z,99178.53
2023-03-08T13:32:16.315Z,99184.09
2023-03-08T13:34:46.384Z,99171.97
2023-03-08T13:37:26.641Z,99169.28
2023-03-08T13:39:58.714Z,99171.94
2023-03-08T13:42:27.954Z,99168.44
2023-03-08T13:45:10.056Z,99158.69
2023-03-08T13:47:38.940Z,99165.25
2023-03-08T13:50:06.184Z,99170.63
2023-03-08T13:52:36.143Z,99163.88
2023-03-08T13:55:06.788Z,99159.81
2023-03-08T13:57:36.199Z,99167.59
2023-03-08T14:00:23.658Z,99153.44
2023-03-08T14:02:50.025Z,99163.38
2023-03-08T14:05:21.921Z,99156.97
2023-03-08T14:08:00.142Z,99156.66
2023-03-08T14:10:39.737Z,99157.84
2023-03-08T14:13:17.474Z,99153.13
2023-03-08T14:15:49.833Z,99160.53
2023-03-08T14:18:22.720Z,99156.19
2023-03-08T14:21:07.528Z,99157.19
2023-03-08T14:23:39.630Z,99160.88
2023-03-08T14:26:21.989Z,99157.00
2023-03-08T14:28:48.450Z,99159.69
2023-03-08T14:31:33.334Z,99157.34
2023-03-08T14:34:02.930Z,99150.59
2023-03-08T14:36:32.661Z,99153.31
2023-03-08T14:38:59.505Z,99151.94
2023-03-08T14:41:34.853Z,99146.41
2023-03-08T14:44:02.834Z,99144.75
2023-03-08T14:46:31.214Z,99142.72
2023-03-08T14:49:03.664Z,99144.41
2023-03-08T14:51:40.169Z,99147.59
2023-03-08T14:54:19.598Z,99137.66
2023-03-08T14:56:47.319Z,99139.00
2023-03-08T14:59:25.188Z,99132.91
2023-03-08T15:01:54.851Z,99126.38
2023-03-08T15:04:24.908Z,99134.94
2023-03-08T15:06:53.698Z,99131.56
2023-03-08T15:09:21.868Z,99126.63
2023-03-08T15:11:51.847Z,99119.38
2023-03-08T15:14:18.114Z,99123.41
2023-03-08T15:16:44.941Z,99121.25
2023-03-08T15:19:13.270Z,99121.06
2023-03-08T15:21:40.616Z,99119.72
2023-03-08T15:24:10.002Z,99112.63
2023-03-08T15:26:36.579Z,99106.72
2023-03-08T15:29:03.141Z,99103.84
2023-03-08T15:31:30.958Z,99101.00
2023-03-08T15:33:57.465Z,99103.00
2023-03-08T15:36:24.303Z,99100.38
2023-03-08T15:38:50.755Z,99103.25
2023-03-08T15:41:17.870Z,99092.53
2023-03-08T15:43:44.257Z,99083.78
2023-03-08T15:46:12.968Z,99086.16
2023-03-08T15:48:39.850Z,99081.63
2023-03-08T15:51:18.541Z,99084.81
2023-03-08T15:53:45.636Z,99074.06
2023-03-08T15:56:12.332Z,99070.03
2023-03-08T15:58:39.110Z,99067.81
2023-03-08T16:01:06.529Z,99064.13
2023-03-08T16:03:34.362Z,99067.00
2023-03-08T16:06:02.521Z,99053.72
2023-03-08T16:08:29.161Z,99057.72
2023-03-08T16:10:59.742Z,99053.84
2023-03-08T16:13:26.591Z,99056.84
2023-03-08T16:15:57.453Z,99052.97
2023-03-08T16:18:25.282Z,99056.16
2023-03-08T16:20:51.810Z,99048.25
2023-03-08T16:23:18.221Z,99052.06
2023-03-08T16:25:45.765Z,99041.03
2023-03-08T16:28:12.448Z,99044.88
2023-03-08T16:30:41.315Z,99046.56
2023-03-08T16:33:07.841Z,99040.69
2023-03-08T16:35:34.578Z,99049.59
2023-03-08T16:38:00.906Z,99050.44
2023-03-08T16:40:30.611Z,99047.75
2023-03-08T16:42:57.334Z,99050.75
2023-03-08T16:45:23.961Z,99056.47
2023-03-08T16:47:50.265Z,99048.72
2023-03-08T16:50:16.878Z,99052.09
2023-03-08T16:52:43.228Z,99050.28
2023-03-08T16:55:11.498Z,99055.66
2023-03-08T16:57:39.017Z,99043.03
2023-03-08T17:00:09.327Z,99058.09
2023-03-08T17:02:35.750Z,99051.84
2023-03-08T17:05:02.561Z,99045.28
2023-03-08T17:07:29.009Z,99042.75
2023-03-08T17:09:57.064Z,99044.72
2023-03-08T17:12:24.091Z,99036.31
2023-03-08T17:14:50.782Z,99033.47
2023-03-08T17:17:17.073Z,99038.41
2023-03-08T17:19:43.601Z,99030.16
2023-03-08T17:22:09.735Z,99029.31
2023-03-08T17:24:36.616Z,99018.03
2023-03-08T17:27:04.264Z,99028.41
2023-03-08T17:29:30.672Z,99027.09
2023-03-08T17:31:56.989Z,99022.56
2023-03-08T17:34:23.918Z,99023.72
2023-03-08T17:36:50.875Z,99028.38
2023-03-08T17:39:17.684Z,99023.41
2023-03-08T17:41:44.127Z,99020.19
2023-03-08T17:44:11.365Z,99019.34
2023-03-08T17:46:37.818Z,99013.91
2023-03-08T17:49:05.050Z,99020.91
2023-03-08T17:51:32.248Z,99018.22
2023-03-08T17:54:00.408Z,99016.19
2023-03-08T17:56:29.733Z,99012.59
2023-03-08T17:58:58.489Z,99012.25
2023-03-08T18:01:27.306Z,99016.09
2023-03-08T18:03:54.682Z,99008.38
2023-03-08T18:06:33.766Z,99010.91
2023-03-08T18:09:03.887Z,99007.63
2023-03-08T18:11:36.957Z,99012.97
2023-03-08T18:14:08.051Z,98996.16
2023-03-08T18:16:35.227Z,99000.34
2023-03-08T18:19:09.275Z,98998.97
2023-03-08T18:21:36.299Z,98981.47
2023-03-08T18:24:04.451Z,98992.78
2023-03-08T18:26:30.925Z,98987.97
2023-03-08T18:28:57.671Z,98981.34
2023-03-08T18:31:27.533Z,98990.09
2023-03-08T18:33:55.293Z,98981.94
2023-03-08T18:36:23.008Z,98981.63
2023-03-08T18:38:50.393Z,98974.84
2023-03-08T18:41:21.679Z,98973.94
2023-03-08T18:43:50.332Z,98967.59
2023-03-08T18:46:17.707Z,98978.94
2023-03-08T18:48:49.976Z,98967.44
2023-03-08T18:51:16.725Z,98968.81
2023-03-08T18:53:43.677Z,98967.34
2023-03-08T18:56:10.205Z,98959.09
2023-03-08T18:58:37.241Z,98958.19
2023-03-08T19:01:13.748Z,98955.34
2023-03-08T19:03:41.796Z,98950.75
2023-03-08T19:06:09.018Z,98948.16
2023-03-08T19:08:35.951Z,98953.75
2023-03-08T19:11:19.879Z,98952.59
2023-03-08T19:13:48.361Z,98950.00
2023-03-08T19:16:17.820Z,98944.72
2023-03-08T19:18:45.704Z,98940.84
2023-03-08T19:21:21.617Z,98937.19
2023-03-08T19:23:49.133Z,98934.91
2023-03-08T19:26:36.350Z,98934.63
2023-03-08T19:29:16.473Z,98942.19
2023-03-08T19:32:04.748Z,98938.91
2023-03-08T19:34:36.566Z,98933.84
2023-03-08T19:37:04.684Z,98936.53
2023-03-08T19:39:34.603Z,98931.09
2023-03-08T19:42:05.284Z,98928.69
2023-03-08T19:44:32.704Z,98929.88
2023-03-08T19:46:59.967Z,98938.47
2023-03-08T19:49:29.326Z,98936.50
2023-03-08T19:51:57.743Z,98923.94
2023-03-08T19:54:26.436Z,98923.19
2023-03-08T19:56:53.652Z,98920.38
2023-03-08T19:59:20.949Z,98933.31
2023-03-08T20:01:53.405Z,98921.44
2023-03-08T20:04:21.319Z,98920.34
2023-03-08T20:06:49.059Z,98924.09
2023-03-08T20:09:20.815Z,98924.72
2023-03-08T20:11:50.074Z,98923.56
2023-03-08T20:14:16.763Z,98920.97
2023-03-08T20:16:43.130Z,98927.88
2023-03-08T20:19:10.402Z,98925.06
2023-03-08T20:21:37.092Z,98927.94
2023-03-08T20:24:03.892Z,98925.06
2023-03-08T20:26:32.567Z,98922.50
2023-03-08T20:29:00.392Z,98932.47
2023-03-08T20:31:29.068Z,98933.84
2023-03-08T20:33:56.085Z,98937.16
2023-03-08T20:36:23.229Z,98936.75
2023-03-08T20:38:50.659Z,98922.28
2023-03-08T20:41:21.323Z,98928.97
2023-03-08T20:43:50.478Z,98931.25
2023-03-08T20:46:19.783Z,98929.94
2023-03-08T20:48:46.869Z,98926.41
2023-03-08T20:51:16.177Z,98924.22
2023-03-08T20:53:43.960Z,98916.03
2023-03-08T20:56:15.407Z,98908.06
2023-03-08T20:58:42.953Z,98917.16
2023-03-08T21:01:14.952Z,98912.94
2023-03-08T21:03:42.425Z,98902.69
2023-03-08T21:06:18.582Z,98900.03
2023-03-08T21:08:46.688Z,98887.78
2023-03-08T21:11:14.214Z,98884.56
2023-03-08T21:13:42.500Z,98884.84
2023-03-08T21:16:13.840Z,98889.28
2023-03-08T21:18:45.247Z,98881.72
2023-03-08T21:21:26.461Z,98894.50
2023-03-08T21:23:58.139Z,98890.53
2023-03-08T21:26:27.303Z,98892.66
2023-03-08T21:29:01.053Z,98885.31
2023-03-08T21:31:28.968Z,98883.63
2023-03-08T21:33:56.073Z,98894.28
2023-03-08T21:36:23.581Z,98885.38
2023-03-08T21:38:54.912Z,98885.22
2023-03-08T21:41:27.956Z,98884.13
2023-03-08T21:43:55.528Z,98881.41
2023-03-08T21:46:25.279Z,98879.53
2023-03-08T21:48:54.572Z,98869.53
2023-03-08T21:51:21.995Z,98869.47
2023-03-08T21:53:49.813Z,98876.16
2023-03-08T21:56:17.562Z,98871.16
2023-03-08T21:58:44.827Z,98872.13
2023-03-08T22:01:19.605Z,98869.66
2023-03-08T22:03:46.728Z,98871.56
2023-03-08T22:06:13.287Z,98865.91
2023-03-08T22:08:39.878Z,98867.31
2023-03-08T22:11:06.183Z,98867.88
2023-03-08T22:13:32.998Z,98865.19
2023-03-08T22:15:59.267Z,98872.13
2023-03-08T22:18:25.938Z,98870.00
2023-03-08T22:20:55.337Z,98875.75
2023-03-08T22:23:21.799Z,98873.75
2023-03-08T22:25:48.274Z,98873.13
2023-03-08T22:28:14.898Z,98865.03
2023-03-08T22:30:41.449Z,98875.59
2023-03-08T22:33:08.955Z,98876.75
2023-03-08T22:35:35.517Z,98867.19
2023-03-08T22:38:01.962Z,98872.44
2023-03-08T22:40:28.141Z,98872.03
2023-03-08T22:42:54.546Z,98869.66
2023-03-08T22:45:20.994Z,98879.59
2023-03-08T22:47:47.588Z,98882.44
2023-03-08T22:50:13.706Z,98877.88
2023-03-08T22:52:40.126Z,98874.66
2023-03-08T22:55:06.804Z,98875.69
2023-03-08T22:57:35.964Z,98883.31
2023-03-08T23:00:04.905Z,98881.88
2023-03-08T23:02:32.885Z,98871.53
2023-03-08T23:04:59.058Z,98877.53
2023-03-08T23:07:25.444Z,98869.38
2023-03-08T23:09:52.555Z,98865.00
2023-03-08T23:12:18.901Z,98863.56
2023-03-08T23:14:45.444Z,98857.75
2023-03-08T23:17:12.017Z,98858.31
2023-03-08T23:19:38.656Z,98858.06
2023-03-08T23:22:05.343Z,98862.72
2023-03-08T23:24:31.541Z,98851.94
2023-03-08T23:27:01.115Z,98858.97
2023-03-08T23:29:27.382Z,98848.97
2023-03-08T23:31:54.560Z,98851.31
2023-03-08T23:34:20.701Z,98860.06
2023-03-08T23:36:47.040Z,98856.31
2023-03-08T23:39:13.216Z,98863.31
2023-03-08T23:41:42.685Z,98873.03
2023-03-08T23:44:09.901Z,98862.03
2023-03-08T23:46:36.715Z,98866.47
2023-03-08T23:49:03.192Z,98856.69
2023-03-08T23:51:31.361Z,98862.50
2023-03-08T23:53:59.677Z,98845.47
2023-03-08T23:56:36.869Z,98851.03
2023-03-08T23:59:07.455Z,98851.28
